createdAt,value
2023-03-17T17:13:15.397Z,60.70
2023-03-17T17:18:21.997Z,61.20
2023-03-17T17:23:29.249Z,61.60
2023-03-17T17:28:39.467Z,61.50
2023-03-17T17:33:45.236Z,61.30
2023-03-17T17:38:51.999Z,61.00
2023-03-17T17:43:59.860Z,60.40
2023-03-17T17:49:05.266Z,60.60
2023-03-17T17:54:10.920Z,60.30
2023-03-17T17:59:18.718Z,60.50
2023-03-17T18:04:24.629Z,60.70
2023-03-17T18:09:31.882Z,61.00
2023-03-17T18:14:39.946Z,61.40
2023-03-17T18:19:45.163Z,61.60
2023-03-17T18:24:50.567Z,61.60
2023-03-17T18:29:58.465Z,61.70
2023-03-17T18:35:07.075Z,62.10
2023-03-17T18:40:18.100Z,62.30
2023-03-17T18:45:26.742Z,62.40
2023-03-17T18:50:32.595Z,62.50
2023-03-17T18:55:37.912Z,62.80
2023-03-17T19:00:45.991Z,63.20
2023-03-17T19:05:51.668Z,63.40
2023-03-17T19:10:56.752Z,63.30
2023-03-17T19:16:04.643Z,63.20
2023-03-17T19:21:10.280Z,63.20
2023-03-17T19:26:15.506Z,63.10
2023-03-17T19:31:24.847Z,62.90
2023-03-17T19:36:30.142Z,62.90
2023-03-17T19:41:35.572Z,62.80
2023-03-17T19:46:43.313Z,62.40
2023-03-17T19:51:49.079Z,62.30
2023-03-17T19:56:54.520Z,62.10
2023-03-17T20:02:02.286Z,61.90
2023-03-17T20:07:07.558Z,62.30
2023-03-17T20:12:12.650Z,62.40
2023-03-17T20:17:20.968Z,62.50
2023-03-17T20:22:26.181Z,62.90
2023-03-17T20:27:32.215Z,63.40
2023-03-17T20:32:40.052Z,64.30
2023-03-17T20:37:45.899Z,65.00
2023-03-17T20:42:52.019Z,65.60
2023-03-17T20:48:00.869Z,67.10
2023-03-17T20:53:06.088Z,68.20
2023-03-17T20:58:13.612Z,69.60
2023-03-17T21:03:21.352Z,70.30
2023-03-17T21:08:26.726Z,71.20
2023-03-17T21:13:33.062Z,72.10
2023-03-17T21:18:40.906Z,72.80
2023-03-17T21:23:46.193Z,73.60
2023-03-17T21:28:52.666Z,74.30
2023-03-17T21:34:00.524Z,74.90
2023-03-17T21:39:06.722Z,75.50
2023-03-17T21:44:15.967Z,76.20
2023-03-17T21:49:24.871Z,77.00
2023-03-17T21:54:30.419Z,77.60
2023-03-17T21:59:35.840Z,78.20
2023-03-17T22:04:43.748Z,79.00
2023-03-17T22:09:48.976Z,79.90
2023-03-17T22:14:54.309Z,80.30
2023-03-17T22:20:02.322Z,81.00
2023-03-17T22:25:08.888Z,81.60
2023-03-17T22:30:15.738Z,82.40
2023-03-17T22:35:25.070Z,83.60
